sensor_id;sensor_type;location;lat;lon;timestamp;P1;durP1;ratioP1;P2;durP2;ratioP2
11473;SDS011;5793;52.238;13.438;2023-06-26T00:01:18;11.18;;;10.07;;
11473;SDS011;5793;52.238;13.438;2023-06-26T00:03:48;11.73;;;10.63;;
11473;SDS011;5793;52.238;13.438;2023-06-26T00:06:15;14.68;;;11.38;;
11473;SDS011;5793;52.238;13.438;2023-06-26T00:08:45;14.73;;;12.68;;
11473;SDS011;5793;52.238;13.438;2023-06-26T00:11:12;19.15;;;12.60;;
11473;SDS011;5793;52.238;13.438;2023-06-26T00:13:40;11.15;;;9.90;;
11473;SDS011;5793;52.238;13.438;2023-06-26T00:16:08;12.38;;;11.07;;
11473;SDS011;5793;52.238;13.438;2023-06-26T00:18:36;14.00;;;12.15;;
11473;SDS011;5793;52.238;13.438;2023-06-26T00:21:04;12.43;;;11.23;;
11473;SDS011;5793;52.238;13.438;2023-06-26T00:23:32;13.45;;;11.32;;
11473;SDS011;5793;52.238;13.438;2023-06-26T00:26:07;12.27;;;11.18;;
11473;SDS011;5793;52.238;13.438;2023-06-26T00:28:35;14.73;;;11.30;;
11473;SDS011;5793;52.238;13.438;2023-06-26T00:31:03;13.80;;;11.95;;
11473;SDS011;5793;52.238;13.438;2023-06-26T00:33:31;13.45;;;11.57;;
11473;SDS011;5793;52.238;13.438;2023-06-26T00:35:59;13.68;;;12.20;;
11473;SDS011;5793;52.238;13.438;2023-06-26T00:38:27;13.95;;;12.52;;
11473;SDS011;5793;52.238;13.438;2023-06-26T00:40:55;14.07;;;12.68;;
11473;SDS011;5793;52.238;13.438;2023-06-26T00:43:24;13.30;;;11.57;;
11473;SDS011;5793;52.238;13.438;2023-06-26T00:45:52;12.93;;;11.63;;
11473;SDS011;5793;52.238;13.438;2023-06-26T00:48:20;12.85;;;11.50;;
11473;SDS011;5793;52.238;13.438;2023-06-26T00:50:47;12.57;;;11.27;;
11473;SDS011;5793;52.238;13.438;2023-06-26T00:53:15;13.52;;;12.13;;
11473;SDS011;5793;52.238;13.438;2023-06-26T00:55:43;12.55;;;11.30;;
11473;SDS011;5793;52.238;13.438;2023-06-26T00:58:12;16.55;;;11.68;;
11473;SDS011;5793;52.238;13.438;2023-06-26T01:00:42;12.40;;;10.88;;
11473;SDS011;5793;52.238;13.438;2023-06-26T01:03:11;11.85;;;10.65;;
11473;SDS011;5793;52.238;13.438;2023-06-26T01:05:39;13.27;;;11.88;;
11473;SDS011;5793;52.238;13.438;2023-06-26T01:08:11;13.43;;;11.57;;
11473;SDS011;5793;52.238;13.438;2023-06-26T01:10:40;12.75;;;11.55;;
11473;SDS011;5793;52.238;13.438;2023-06-26T01:13:09;12.35;;;11.15;;
11473;SDS011;5793;52.238;13.438;2023-06-26T01:15:36;12.63;;;11.32;;
11473;SDS011;5793;52.238;13.438;2023-06-26T01:18:06;12.10;;;10.95;;
11473;SDS011;5793;52.238;13.438;2023-06-26T01:20:35;10.57;;;9.50;;
11473;SDS011;5793;52.238;13.438;2023-06-26T01:23:07;11.27;;;10.05;;
11473;SDS011;5793;52.238;13.438;2023-06-26T01:25:44;11.25;;;10.18;;
11473;SDS011;5793;52.238;13.438;2023-06-26T01:28:29;11.65;;;10.00;;
11473;SDS011;5793;52.238;13.438;2023-06-26T01:30:59;10.55;;;9.55;;
11473;SDS011;5793;52.238;13.438;2023-06-26T01:33:27;10.57;;;9.48;;
11473;SDS011;5793;52.238;13.438;2023-06-26T01:35:55;10.27;;;9.27;;
11473;SDS011;5793;52.238;13.438;2023-06-26T01:38:23;9.88;;;8.98;;
11473;SDS011;5793;52.238;13.438;2023-06-26T01:40:52;10.57;;;9.57;;
11473;SDS011;5793;52.238;13.438;2023-06-26T01:43:21;11.05;;;9.93;;
11473;SDS011;5793;52.238;13.438;2023-06-26T01:45:54;11.20;;;10.18;;
11473;SDS011;5793;52.238;13.438;2023-06-26T01:48:27;12.30;;;11.00;;
11473;SDS011;5793;52.238;13.438;2023-06-26T01:51:00;13.55;;;10.57;;
11473;SDS011;5793;52.238;13.438;2023-06-26T01:53:32;12.05;;;10.85;;
11473;SDS011;5793;52.238;13.438;2023-06-26T01:56:05;13.73;;;10.70;;
11473;SDS011;5793;52.238;13.438;2023-06-26T01:58:35;13.82;;;10.73;;
11473;SDS011;5793;52.238;13.438;2023-06-26T02:01:08;11.50;;;10.30;;
11473;SDS011;5793;52.238;13.438;2023-06-26T02:03:36;11.77;;;10.57;;
11473;SDS011;5793;52.238;13.438;2023-06-26T02:06:04;12.68;;;11.35;;
11473;SDS011;5793;52.238;13.438;2023-06-26T02:08:32;13.43;;;12.07;;
11473;SDS011;5793;52.238;13.438;2023-06-26T02:11:00;19.38;;;13.45;;
11473;SDS011;5793;52.238;13.438;2023-06-26T02:13:27;13.98;;;12.07;;
11473;SDS011;5793;52.238;13.438;2023-06-26T02:15:55;14.50;;;13.07;;
11473;SDS011;5793;52.238;13.438;2023-06-26T02:18:24;12.60;;;11.15;;
11473;SDS011;5793;52.238;13.438;2023-06-26T02:20:52;15.20;;;13.60;;
11473;SDS011;5793;52.238;13.438;2023-06-26T02:23:20;13.63;;;11.57;;
11473;SDS011;5793;52.238;13.438;2023-06-26T02:25:48;12.68;;;11.35;;
11473;SDS011;5793;52.238;13.438;2023-06-26T02:28:15;12.55;;;11.20;;
11473;SDS011;5793;52.238;13.438;2023-06-26T02:30:43;14.70;;;13.10;;
11473;SDS011;5793;52.238;13.438;2023-06-26T02:33:11;12.85;;;11.55;;
11473;SDS011;5793;52.238;13.438;2023-06-26T02:35:40;12.18;;;10.68;;
11473;SDS011;5793;52.238;13.438;2023-06-26T02:38:08;13.80;;;12.30;;
11473;SDS011;5793;52.238;13.438;2023-06-26T02:40:36;14.77;;;11.40;;
11473;SDS011;5793;52.238;13.438;2023-06-26T02:43:04;14.13;;;11.25;;
11473;SDS011;5793;52.238;13.438;2023-06-26T02:45:32;12.98;;;11.77;;
11473;SDS011;5793;52.238;13.438;2023-06-26T02:48:00;16.52;;;13.77;;
11473;SDS011;5793;52.238;13.438;2023-06-26T02:50:28;17.30;;;15.20;;
11473;SDS011;5793;52.238;13.438;2023-06-26T02:52:57;15.35;;;13.85;;
11473;SDS011;5793;52.238;13.438;2023-06-26T02:55:25;15.80;;;14.05;;
11473;SDS011;5793;52.238;13.438;2023-06-26T02:57:53;14.40;;;12.77;;
11473;SDS011;5793;52.238;13.438;2023-06-26T03:00:21;17.25;;;12.95;;
11473;SDS011;5793;52.238;13.438;2023-06-26T03:02:49;15.52;;;12.45;;
11473;SDS011;5793;52.238;13.438;2023-06-26T03:05:17;16.52;;;11.82;;
11473;SDS011;5793;52.238;13.438;2023-06-26T03:07:45;11.70;;;10.45;;
11473;SDS011;5793;52.238;13.438;2023-06-26T03:10:14;12.32;;;11.13;;
11473;SDS011;5793;52.238;13.438;2023-06-26T03:12:42;15.05;;;12.95;;
11473;SDS011;5793;52.238;13.438;2023-06-26T03:15:10;13.65;;;11.90;;
11473;SDS011;5793;52.238;13.438;2023-06-26T03:17:38;12.27;;;10.90;;
11473;SDS011;5793;52.238;13.438;2023-06-26T03:20:06;24.48;;;12.35;;
11473;SDS011;5793;52.238;13.438;2023-06-26T03:22:35;16.58;;;12.40;;
11473;SDS011;5793;52.238;13.438;2023-06-26T03:25:03;14.82;;;12.32;;
11473;SDS011;5793;52.238;13.438;2023-06-26T03:27:33;17.70;;;12.98;;
11473;SDS011;5793;52.238;13.438;2023-06-26T03:30:01;13.88;;;12.18;;
11473;SDS011;5793;52.238;13.438;2023-06-26T03:32:28;18.55;;;13.45;;
11473;SDS011;5793;52.238;13.438;2023-06-26T03:34:56;16.42;;;14.55;;
11473;SDS011;5793;52.238;13.438;2023-06-26T03:37:24;16.55;;;14.82;;
11473;SDS011;5793;52.238;13.438;2023-06-26T03:39:52;17.60;;;15.40;;
11473;SDS011;5793;52.238;13.438;2023-06-26T03:42:19;15.52;;;13.95;;
11473;SDS011;5793;52.238;13.438;2023-06-26T03:44:49;14.88;;;13.27;;
11473;SDS011;5793;52.238;13.438;2023-06-26T03:47:16;13.85;;;12.45;;
11473;SDS011;5793;52.238;13.438;2023-06-26T03:49:44;18.50;;;15.85;;
11473;SDS011;5793;52.238;13.438;2023-06-26T03:52:12;15.95;;;14.32;;
11473;SDS011;5793;52.238;13.438;2023-06-26T03:54:39;16.40;;;14.80;;
11473;SDS011;5793;52.238;13.438;2023-06-26T03:57:07;13.60;;;12.20;;
11473;SDS011;5793;52.238;13.438;2023-06-26T03:59:35;15.00;;;13.43;;
11473;SDS011;5793;52.238;13.438;2023-06-26T04:02:05;15.65;;;13.02;;
11473;SDS011;5793;52.238;13.438;2023-06-26T04:04:33;13.10;;;11.80;;
11473;SDS011;5793;52.238;13.438;2023-06-26T04:07:01;16.27;;;14.57;;
11473;SDS011;5793;52.238;13.438;2023-06-26T04:09:28;13.48;;;12.23;;
11473;SDS011;5793;52.238;13.438;2023-06-26T04:11:56;17.33;;;14.23;;
11473;SDS011;5793;52.238;13.438;2023-06-26T04:14:24;13.80;;;12.45;;
11473;SDS011;5793;52.238;13.438;2023-06-26T04:16:52;15.52;;;12.93;;
11473;SDS011;5793;52.238;13.438;2023-06-26T04:19:21;16.73;;;13.73;;
11473;SDS011;5793;52.238;13.438;2023-06-26T04:21:49;14.63;;;13.23;;
11473;SDS011;5793;52.238;13.438;2023-06-26T04:24:17;14.82;;;13.35;;
11473;SDS011;5793;52.238;13.438;2023-06-26T04:26:44;15.18;;;13.68;;
11473;SDS011;5793;52.238;13.438;2023-06-26T04:29:12;19.65;;;13.75;;
11473;SDS011;5793;52.238;13.438;2023-06-26T04:31:40;15.63;;;12.52;;
11473;SDS011;5793;52.238;13.438;2023-06-26T04:34:12;15.82;;;14.07;;
11473;SDS011;5793;52.238;13.438;2023-06-26T04:36:42;13.13;;;11.82;;
11473;SDS011;5793;52.238;13.438;2023-06-26T04:39:14;11.75;;;10.57;;
11473;SDS011;5793;52.238;13.438;2023-06-26T04:41:42;12.63;;;10.93;;
11473;SDS011;5793;52.238;13.438;2023-06-26T04:44:09;13.85;;;11.93;;
11473;SDS011;5793;52.238;13.438;2023-06-26T04:46:38;13.32;;;12.05;;
11473;SDS011;5793;52.238;13.438;2023-06-26T04:49:07;12.45;;;11.10;;
11473;SDS011;5793;52.238;13.438;2023-06-26T04:51:35;15.95;;;12.30;;
11473;SDS011;5793;52.238;13.438;2023-06-26T04:54:07;14.25;;;12.75;;
11473;SDS011;5793;52.238;13.438;2023-06-26T04:56:36;15.57;;;11.73;;
11473;SDS011;5793;52.238;13.438;2023-06-26T04:59:06;14.40;;;13.00;;
11473;SDS011;5793;52.238;13.438;2023-06-26T05:01:35;13.60;;;12.20;;
11473;SDS011;5793;52.238;13.438;2023-06-26T05:04:05;17.40;;;12.55;;
11473;SDS011;5793;52.238;13.438;2023-06-26T05:06:33;15.55;;;13.15;;
11473;SDS011;5793;52.238;13.438;2023-06-26T05:09:01;17.33;;;12.43;;
11473;SDS011;5793;52.238;13.438;2023-06-26T05:11:30;13.60;;;12.18;;
11473;SDS011;5793;52.238;13.438;2023-06-26T05:13:58;14.25;;;11.85;;
11473;SDS011;5793;52.238;13.438;2023-06-26T05:16:26;13.82;;;12.15;;
11473;SDS011;5793;52.238;13.438;2023-06-26T05:18:54;14.85;;;12.02;;
11473;SDS011;5793;52.238;13.438;2023-06-26T05:21:21;19.27;;;12.32;;
11473;SDS011;5793;52.238;13.438;2023-06-26T05:23:50;11.82;;;10.73;;
11473;SDS011;5793;52.238;13.438;2023-06-26T05:26:23;12.52;;;11.23;;
11473;SDS011;5793;52.238;13.438;2023-06-26T05:28:55;14.40;;;11.70;;
11473;SDS011;5793;52.238;13.438;2023-06-26T05:31:24;26.67;;;13.15;;
11473;SDS011;5793;52.238;13.438;2023-06-26T05:33:52;23.80;;;13.32;;
11473;SDS011;5793;52.238;13.438;2023-06-26T05:36:22;29.35;;;12.75;;
11473;SDS011;5793;52.238;13.438;2023-06-26T05:38:52;22.38;;;11.90;;
11473;SDS011;5793;52.238;13.438;2023-06-26T05:41:22;13.35;;;11.88;;
11473;SDS011;5793;52.238;13.438;2023-06-26T05:43:51;16.85;;;12.10;;
11473;SDS011;5793;52.238;13.438;2023-06-26T05:46:22;15.02;;;12.60;;
11473;SDS011;5793;52.238;13.438;2023-06-26T05:48:49;17.30;;;12.27;;
11473;SDS011;5793;52.238;13.438;2023-06-26T05:51:17;23.05;;;13.77;;
11473;SDS011;5793;52.238;13.438;2023-06-26T05:53:45;20.15;;;13.38;;
11473;SDS011;5793;52.238;13.438;2023-06-26T05:56:14;14.30;;;12.57;;
11473;SDS011;5793;52.238;13.438;2023-06-26T05:58:42;19.25;;;13.02;;
11473;SDS011;5793;52.238;13.438;2023-06-26T06:01:10;15.85;;;12.65;;
11473;SDS011;5793;52.238;13.438;2023-06-26T06:03:40;15.68;;;12.57;;
11473;SDS011;5793;52.238;13.438;2023-06-26T06:06:08;15.30;;;12.48;;
11473;SDS011;5793;52.238;13.438;2023-06-26T06:08:35;12.50;;;11.40;;
11473;SDS011;5793;52.238;13.438;2023-06-26T06:11:03;14.32;;;12.80;;
11473;SDS011;5793;52.238;13.438;2023-06-26T06:13:31;12.48;;;11.35;;
11473;SDS011;5793;52.238;13.438;2023-06-26T06:15:59;12.52;;;11.23;;
11473;SDS011;5793;52.238;13.438;2023-06-26T06:18:27;10.38;;;9.25;;
11473;SDS011;5793;52.238;13.438;2023-06-26T06:20:56;9.65;;;8.75;;
11473;SDS011;5793;52.238;13.438;2023-06-26T06:23:24;10.88;;;9.88;;
11473;SDS011;5793;52.238;13.438;2023-06-26T06:25:52;12.48;;;9.93;;
11473;SDS011;5793;52.238;13.438;2023-06-26T06:28:20;10.10;;;8.52;;
11473;SDS011;5793;52.238;13.438;2023-06-26T06:30:48;10.10;;;9.00;;
11473;SDS011;5793;52.238;13.438;2023-06-26T06:33:16;10.55;;;9.43;;
11473;SDS011;5793;52.238;13.438;2023-06-26T06:35:44;8.85;;;7.97;;
11473;SDS011;5793;52.238;13.438;2023-06-26T06:38:13;11.30;;;8.90;;
11473;SDS011;5793;52.238;13.438;2023-06-26T06:40:41;8.93;;;8.02;;
11473;SDS011;5793;52.238;13.438;2023-06-26T06:43:08;8.55;;;7.68;;
11473;SDS011;5793;52.238;13.438;2023-06-26T06:45:36;9.65;;;7.22;;
11473;SDS011;5793;52.238;13.438;2023-06-26T06:48:04;10.43;;;7.32;;
11473;SDS011;5793;52.238;13.438;2023-06-26T06:50:32;8.75;;;7.85;;
11473;SDS011;5793;52.238;13.438;2023-06-26T06:53:00;10.80;;;7.68;;
11473;SDS011;5793;52.238;13.438;2023-06-26T06:55:30;7.90;;;7.20;;
11473;SDS011;5793;52.238;13.438;2023-06-26T06:57:58;9.68;;;7.80;;
11473;SDS011;5793;52.238;13.438;2023-06-26T07:00:26;9.57;;;7.65;;
11473;SDS011;5793;52.238;13.438;2023-06-26T07:02:54;7.50;;;6.70;;
11473;SDS011;5793;52.238;13.438;2023-06-26T07:05:23;8.30;;;7.40;;
11473;SDS011;5793;52.238;13.438;2023-06-26T07:07:50;14.68;;;7.28;;
11473;SDS011;5793;52.238;13.438;2023-06-26T07:10:18;11.93;;;8.00;;
11473;SDS011;5793;52.238;13.438;2023-06-26T07:12:47;8.45;;;7.63;;
11473;SDS011;5793;52.238;13.438;2023-06-26T07:15:16;13.63;;;8.35;;
11473;SDS011;5793;52.238;13.438;2023-06-26T07:17:44;10.93;;;8.27;;
11473;SDS011;5793;52.238;13.438;2023-06-26T07:20:12;14.38;;;8.35;;
11473;SDS011;5793;52.238;13.438;2023-06-26T07:22:42;11.63;;;9.15;;
11473;SDS011;5793;52.238;13.438;2023-06-26T07:25:11;14.38;;;8.80;;
11473;SDS011;5793;52.238;13.438;2023-06-26T07:27:39;12.80;;;8.75;;
11473;SDS011;5793;52.238;13.438;2023-06-26T07:30:10;15.52;;;8.82;;
11473;SDS011;5793;52.238;13.438;2023-06-26T07:32:38;11.60;;;8.23;;
11473;SDS011;5793;52.238;13.438;2023-06-26T07:35:07;9.88;;;8.43;;
11473;SDS011;5793;52.238;13.438;2023-06-26T07:37:34;10.00;;;7.97;;
11473;SDS011;5793;52.238;13.438;2023-06-26T07:40:02;11.80;;;8.40;;
11473;SDS011;5793;52.238;13.438;2023-06-26T07:42:31;9.95;;;8.23;;
11473;SDS011;5793;52.238;13.438;2023-06-26T07:44:59;12.15;;;8.07;;
11473;SDS011;5793;52.238;13.438;2023-06-26T07:47:28;17.70;;;8.52;;
11473;SDS011;5793;52.238;13.438;2023-06-26T07:49:56;8.00;;;7.20;;
11473;SDS011;5793;52.238;13.438;2023-06-26T07:52:24;8.57;;;7.63;;
11473;SDS011;5793;52.238;13.438;2023-06-26T07:54:51;8.43;;;7.63;;
11473;SDS011;5793;52.238;13.438;2023-06-26T07:57:19;8.00;;;7.30;;
11473;SDS011;5793;52.238;13.438;2023-06-26T07:59:47;7.50;;;6.80;;
11473;SDS011;5793;52.238;13.438;2023-06-26T08:02:15;9.05;;;7.38;;
11473;SDS011;5793;52.238;13.438;2023-06-26T08:04:44;10.23;;;7.05;;
11473;SDS011;5793;52.238;13.438;2023-06-26T08:07:12;7.63;;;6.40;;
11473;SDS011;5793;52.238;13.438;2023-06-26T08:09:41;12.50;;;6.47;;
11473;SDS011;5793;52.238;13.438;2023-06-26T08:12:08;8.68;;;6.20;;
11473;SDS011;5793;52.238;13.438;2023-06-26T08:14:38;7.53;;;5.85;;
11473;SDS011;5793;52.238;13.438;2023-06-26T08:17:06;8.50;;;5.97;;
11473;SDS011;5793;52.238;13.438;2023-06-26T08:19:34;11.02;;;6.03;;
11473;SDS011;5793;52.238;13.438;2023-06-26T08:22:03;7.95;;;5.68;;
11473;SDS011;5793;52.238;13.438;2023-06-26T08:24:31;8.02;;;6.10;;
11473;SDS011;5793;52.238;13.438;2023-06-26T08:26:59;6.00;;;5.10;;
11473;SDS011;5793;52.238;13.438;2023-06-26T08:29:26;5.63;;;5.13;;
11473;SDS011;5793;52.238;13.438;2023-06-26T08:31:54;5.50;;;4.95;;
11473;SDS011;5793;52.238;13.438;2023-06-26T08:34:22;5.28;;;4.78;;
11473;SDS011;5793;52.238;13.438;2023-06-26T08:36:50;5.60;;;5.10;;
11473;SDS011;5793;52.238;13.438;2023-06-26T08:39:19;12.55;;;5.05;;
11473;SDS011;5793;52.238;13.438;2023-06-26T08:41:47;5.13;;;4.63;;
11473;SDS011;5793;52.238;13.438;2023-06-26T08:44:14;6.57;;;5.13;;
11473;SDS011;5793;52.238;13.438;2023-06-26T08:46:43;16.48;;;5.70;;
11473;SDS011;5793;52.238;13.438;2023-06-26T08:49:14;5.28;;;4.50;;
11473;SDS011;5793;52.238;13.438;2023-06-26T08:51:45;5.68;;;4.40;;
11473;SDS011;5793;52.238;13.438;2023-06-26T08:54:21;6.90;;;4.35;;
11473;SDS011;5793;52.238;13.438;2023-06-26T08:56:55;6.55;;;4.43;;
11473;SDS011;5793;52.238;13.438;2023-06-26T08:59:24;7.72;;;4.40;;
11473;SDS011;5793;52.238;13.438;2023-06-26T09:01:52;9.88;;;4.10;;
11473;SDS011;5793;52.238;13.438;2023-06-26T09:04:21;3.90;;;3.53;;
11473;SDS011;5793;52.238;13.438;2023-06-26T09:06:48;4.10;;;3.80;;
11473;SDS011;5793;52.238;13.438;2023-06-26T09:09:16;4.13;;;3.72;;
11473;SDS011;5793;52.238;13.438;2023-06-26T09:11:45;7.20;;;3.63;;
11473;SDS011;5793;52.238;13.438;2023-06-26T09:14:13;4.10;;;3.50;;
11473;SDS011;5793;52.238;13.438;2023-06-26T09:16:41;4.47;;;3.47;;
11473;SDS011;5793;52.238;13.438;2023-06-26T09:19:10;4.07;;;3.50;;
11473;SDS011;5793;52.238;13.438;2023-06-26T09:21:38;3.80;;;3.50;;
11473;SDS011;5793;52.238;13.438;2023-06-26T09:24:07;3.92;;;3.40;;
11473;SDS011;5793;52.238;13.438;2023-06-26T09:26:36;4.93;;;3.65;;
11473;SDS011;5793;52.238;13.438;2023-06-26T09:29:06;3.60;;;3.30;;
11473;SDS011;5793;52.238;13.438;2023-06-26T09:31:36;3.50;;;3.20;;
11473;SDS011;5793;52.238;13.438;2023-06-26T09:34:07;5.15;;;3.22;;
11473;SDS011;5793;52.238;13.438;2023-06-26T09:36:35;6.00;;;3.40;;
11473;SDS011;5793;52.238;13.438;2023-06-26T09:39:06;4.20;;;3.80;;
11473;SDS011;5793;52.238;13.438;2023-06-26T09:41:38;3.92;;;3.38;;
11473;SDS011;5793;52.238;13.438;2023-06-26T09:44:10;5.80;;;3.50;;
11473;SDS011;5793;52.238;13.438;2023-06-26T09:46:39;3.58;;;3.10;;
11473;SDS011;5793;52.238;13.438;2023-06-26T09:49:07;3.50;;;2.95;;
11473;SDS011;5793;52.238;13.438;2023-06-26T09:51:37;5.10;;;3.33;;
11473;SDS011;5793;52.238;13.438;2023-06-26T09:54:06;4.40;;;3.38;;
11473;SDS011;5793;52.238;13.438;2023-06-26T09:56:35;3.70;;;3.13;;
11473;SDS011;5793;52.238;13.438;2023-06-26T09:59:04;3.35;;;3.03;;
11473;SDS011;5793;52.238;13.438;2023-06-26T10:01:39;5.60;;;3.47;;
11473;SDS011;5793;52.238;13.438;2023-06-26T10:04:08;3.60;;;3.25;;
11473;SDS011;5793;52.238;13.438;2023-06-26T10:06:37;6.82;;;3.78;;
11473;SDS011;5793;52.238;13.438;2023-06-26T10:09:09;5.30;;;3.50;;
11473;SDS011;5793;52.238;13.438;2023-06-26T10:11:39;3.47;;;3.20;;
11473;SDS011;5793;52.238;13.438;2023-06-26T10:14:11;9.77;;;4.20;;
11473;SDS011;5793;52.238;13.438;2023-06-26T10:16:45;4.40;;;3.10;;
11473;SDS011;5793;52.238;13.438;2023-06-26T10:19:16;3.70;;;3.40;;
11473;SDS011;5793;52.238;13.438;2023-06-26T10:21:50;8.35;;;3.67;;
11473;SDS011;5793;52.238;13.438;2023-06-26T10:24:19;3.60;;;3.30;;
11473;SDS011;5793;52.238;13.438;2023-06-26T10:26:49;3.72;;;3.42;;
11473;SDS011;5793;52.238;13.438;2023-06-26T10:29:19;3.55;;;3.25;;
11473;SDS011;5793;52.238;13.438;2023-06-26T10:31:51;3.17;;;2.97;;
11473;SDS011;5793;52.238;13.438;2023-06-26T10:34:23;4.45;;;3.55;;
11473;SDS011;5793;52.238;13.438;2023-06-26T10:36:58;5.55;;;3.53;;
11473;SDS011;5793;52.238;13.438;2023-06-26T10:39:27;6.85;;;4.00;;
11473;SDS011;5793;52.238;13.438;2023-06-26T10:42:08;4.65;;;3.50;;
11473;SDS011;5793;52.238;13.438;2023-06-26T10:44:40;4.50;;;3.63;;
11473;SDS011;5793;52.238;13.438;2023-06-26T10:47:10;5.35;;;3.75;;
11473;SDS011;5793;52.238;13.438;2023-06-26T10:49:38;4.43;;;3.80;;
11473;SDS011;5793;52.238;13.438;2023-06-26T10:52:33;5.53;;;3.90;;
11473;SDS011;5793;52.238;13.438;2023-06-26T10:55:03;4.00;;;3.60;;
11473;SDS011;5793;52.238;13.438;2023-06-26T10:57:32;4.60;;;3.60;;
11473;SDS011;5793;52.238;13.438;2023-06-26T11:00:08;4.95;;;4.03;;
11473;SDS011;5793;52.238;13.438;2023-06-26T11:02:51;4.50;;;4.10;;
11473;SDS011;5793;52.238;13.438;2023-06-26T11:05:25;4.90;;;4.05;;
11473;SDS011;5793;52.238;13.438;2023-06-26T11:08:03;4.15;;;3.75;;
11473;SDS011;5793;52.238;13.438;2023-06-26T11:10:48;4.85;;;4.07;;
11473;SDS011;5793;52.238;13.438;2023-06-26T11:13:17;6.25;;;4.20;;
11473;SDS011;5793;52.238;13.438;2023-06-26T11:15:46;5.45;;;4.18;;
11473;SDS011;5793;52.238;13.438;2023-06-26T11:18:16;4.22;;;3.80;;
11473;SDS011;5793;52.238;13.438;2023-06-26T11:20:44;4.28;;;3.92;;
11473;SDS011;5793;52.238;13.438;2023-06-26T11:23:12;5.18;;;3.97;;
11473;SDS011;5793;52.238;13.438;2023-06-26T11:25:40;4.75;;;4.25;;
11473;SDS011;5793;52.238;13.438;2023-06-26T11:28:09;4.80;;;4.38;;
11473;SDS011;5793;52.238;13.438;2023-06-26T11:30:38;5.05;;;4.50;;
11473;SDS011;5793;52.238;13.438;2023-06-26T11:33:09;5.60;;;4.20;;
11473;SDS011;5793;52.238;13.438;2023-06-26T11:35:38;4.70;;;4.30;;
11473;SDS011;5793;52.238;13.438;2023-06-26T11:38:06;6.05;;;4.35;;
11473;SDS011;5793;52.238;13.438;2023-06-26T11:40:35;4.93;;;4.22;;
11473;SDS011;5793;52.238;13.438;2023-06-26T11:43:04;4.30;;;4.00;;
11473;SDS011;5793;52.238;13.438;2023-06-26T11:45:33;13.13;;;4.97;;
11473;SDS011;5793;52.238;13.438;2023-06-26T11:48:01;5.03;;;4.53;;
11473;SDS011;5793;52.238;13.438;2023-06-26T11:50:29;4.78;;;4.38;;
11473;SDS011;5793;52.238;13.438;2023-06-26T11:52:58;5.63;;;4.40;;
11473;SDS011;5793;52.238;13.438;2023-06-26T11:55:28;10.75;;;5.63;;
11473;SDS011;5793;52.238;13.438;2023-06-26T11:58:08;12.40;;;5.18;;
11473;SDS011;5793;52.238;13.438;2023-06-26T12:00:40;4.97;;;4.57;;
11473;SDS011;5793;52.238;13.438;2023-06-26T12:03:08;4.82;;;4.03;;
11473;SDS011;5793;52.238;13.438;2023-06-26T12:05:37;5.15;;;4.75;;
11473;SDS011;5793;52.238;13.438;2023-06-26T12:08:08;10.25;;;5.50;;
11473;SDS011;5793;52.238;13.438;2023-06-26T12:10:35;9.93;;;5.15;;
11473;SDS011;5793;52.238;13.438;2023-06-26T12:13:04;5.75;;;5.15;;
11473;SDS011;5793;52.238;13.438;2023-06-26T12:15:32;5.45;;;5.00;;
11473;SDS011;5793;52.238;13.438;2023-06-26T12:18:00;6.10;;;4.85;;
11473;SDS011;5793;52.238;13.438;2023-06-26T12:20:39;6.78;;;5.10;;
11473;SDS011;5793;52.238;13.438;2023-06-26T12:23:12;7.25;;;5.78;;
11473;SDS011;5793;52.238;13.438;2023-06-26T12:25:40;8.75;;;5.25;;
11473;SDS011;5793;52.238;13.438;2023-06-26T12:28:15;12.23;;;5.95;;
11473;SDS011;5793;52.238;13.438;2023-06-26T12:30:46;13.35;;;6.05;;
11473;SDS011;5793;52.238;13.438;2023-06-26T12:33:14;5.38;;;4.85;;
11473;SDS011;5793;52.238;13.438;2023-06-26T12:35:42;6.57;;;4.88;;
11473;SDS011;5793;52.238;13.438;2023-06-26T12:38:10;5.80;;;4.97;;
11473;SDS011;5793;52.238;13.438;2023-06-26T12:40:45;9.00;;;5.13;;
11473;SDS011;5793;52.238;13.438;2023-06-26T12:43:22;8.68;;;5.68;;
11473;SDS011;5793;52.238;13.438;2023-06-26T12:45:53;5.20;;;4.70;;
11473;SDS011;5793;52.238;13.438;2023-06-26T12:48:22;7.25;;;5.43;;
11473;SDS011;5793;52.238;13.438;2023-06-26T12:51:07;6.28;;;5.38;;
11473;SDS011;5793;52.238;13.438;2023-06-26T12:53:36;5.78;;;5.05;;
11473;SDS011;5793;52.238;13.438;2023-06-26T12:56:07;6.35;;;5.75;;
11473;SDS011;5793;52.238;13.438;2023-06-26T12:58:35;5.60;;;5.10;;
11473;SDS011;5793;52.238;13.438;2023-06-26T13:01:05;13.48;;;5.72;;
11473;SDS011;5793;52.238;13.438;2023-06-26T13:03:41;10.55;;;5.10;;
11473;SDS011;5793;52.238;13.438;2023-06-26T13:06:09;7.22;;;5.32;;
11473;SDS011;5793;52.238;13.438;2023-06-26T13:08:38;11.30;;;6.00;;
11473;SDS011;5793;52.238;13.438;2023-06-26T13:11:07;6.45;;;5.60;;
11473;SDS011;5793;52.238;13.438;2023-06-26T13:13:35;12.32;;;6.55;;
11473;SDS011;5793;52.238;13.438;2023-06-26T13:16:03;7.22;;;5.53;;
11473;SDS011;5793;52.238;13.438;2023-06-26T13:18:31;11.75;;;5.65;;
11473;SDS011;5793;52.238;13.438;2023-06-26T13:20:59;10.07;;;6.28;;
11473;SDS011;5793;52.238;13.438;2023-06-26T13:23:27;5.50;;;5.03;;
11473;SDS011;5793;52.238;13.438;2023-06-26T13:25:54;10.25;;;5.60;;
11473;SDS011;5793;52.238;13.438;2023-06-26T13:28:23;7.10;;;5.43;;
11473;SDS011;5793;52.238;13.438;2023-06-26T13:30:51;8.73;;;5.50;;
11473;SDS011;5793;52.238;13.438;2023-06-26T13:33:19;5.75;;;5.25;;
11473;SDS011;5793;52.238;13.438;2023-06-26T13:35:47;6.10;;;4.90;;
11473;SDS011;5793;52.238;13.438;2023-06-26T13:38:14;6.78;;;5.45;;
11473;SDS011;5793;52.238;13.438;2023-06-26T13:40:43;9.60;;;5.55;;
11473;SDS011;5793;52.238;13.438;2023-06-26T13:43:11;6.57;;;4.90;;
11473;SDS011;5793;52.238;13.438;2023-06-26T13:45:41;5.80;;;5.30;;
11473;SDS011;5793;52.238;13.438;2023-06-26T13:48:09;6.78;;;5.50;;
11473;SDS011;5793;52.238;13.438;2023-06-26T13:50:36;11.13;;;5.97;;
11473;SDS011;5793;52.238;13.438;2023-06-26T13:53:09;9.68;;;6.20;;
11473;SDS011;5793;52.238;13.438;2023-06-26T13:55:38;6.35;;;5.28;;
11473;SDS011;5793;52.238;13.438;2023-06-26T13:58:07;8.52;;;6.13;;
11473;SDS011;5793;52.238;13.438;2023-06-26T14:00:35;5.68;;;5.18;;
11473;SDS011;5793;52.238;13.438;2023-06-26T14:03:06;5.88;;;5.38;;
11473;SDS011;5793;52.238;13.438;2023-06-26T14:05:34;7.22;;;5.35;;
11473;SDS011;5793;52.238;13.438;2023-06-26T14:08:03;7.82;;;5.70;;
11473;SDS011;5793;52.238;13.438;2023-06-26T14:10:31;6.60;;;5.30;;
11473;SDS011;5793;52.238;13.438;2023-06-26T14:13:00;13.40;;;6.70;;
11473;SDS011;5793;52.238;13.438;2023-06-26T14:15:29;5.60;;;5.10;;
11473;SDS011;5793;52.238;13.438;2023-06-26T14:17:57;5.63;;;5.13;;
11473;SDS011;5793;52.238;13.438;2023-06-26T14:20:26;5.93;;;5.32;;
11473;SDS011;5793;52.238;13.438;2023-06-26T14:22:54;9.02;;;5.63;;
11473;SDS011;5793;52.238;13.438;2023-06-26T14:25:22;12.10;;;5.55;;
11473;SDS011;5793;52.238;13.438;2023-06-26T14:27:50;9.50;;;5.90;;
11473;SDS011;5793;52.238;13.438;2023-06-26T14:30:18;6.15;;;5.20;;
11473;SDS011;5793;52.238;13.438;2023-06-26T14:32:46;9.60;;;5.25;;
11473;SDS011;5793;52.238;13.438;2023-06-26T14:35:14;13.25;;;6.18;;
11473;SDS011;5793;52.238;13.438;2023-06-26T14:37:43;8.05;;;5.40;;
11473;SDS011;5793;52.238;13.438;2023-06-26T14:40:11;6.75;;;5.28;;
11473;SDS011;5793;52.238;13.438;2023-06-26T14:42:40;5.88;;;5.38;;
11473;SDS011;5793;52.238;13.438;2023-06-26T14:45:10;18.05;;;5.38;;
11473;SDS011;5793;52.238;13.438;2023-06-26T14:47:38;19.88;;;6.05;;